sensor_id;sensor_type;location;lat;lon;timestamp;pressure;altitude;pressure_sealevel;temperature;humidity
38718;BME280;24468;52.128;9.278;2022-11-20T00:01:46;100439.16;;;-2.38;100.00
38718;BME280;24468;52.128;9.278;2022-11-20T00:04:11;100446.25;;;-2.33;100.00
38718;BME280;24468;52.128;9.278;2022-11-20T00:06:37;100449.75;;;-2.38;100.00
38718;BME280;24468;52.128;9.278;2022-11-20T00:09:03;100443.59;;;-2.34;100.00
38718;BME280;24468;52.128;9.278;2022-11-20T00:11:29;100438.22;;;-2.48;100.00
38718;BME280;24468;52.128;9.278;2022-11-20T00:13:58;100433.84;;;-2.41;100.00
38718;BME280;24468;52.128;9.278;2022-11-20T00:16:26;100438.22;;;-2.48;100.00
38718;BME280;24468;52.128;9.278;2022-11-20T00:18:52;100442.66;;;-2.44;100.00
38718;BME280;24468;52.128;9.278;2022-11-20T00:21:25;100440.91;;;-2.40;100.00
38718;BME280;24468;52.128;9.278;2022-11-20T00:23:53;100443.47;;;-2.51;100.00
38718;BME280;24468;52.128;9.278;2022-11-20T00:26:19;100446.03;;;-2.62;100.00
38718;BME280;24468;52.128;9.278;2022-11-20T00:28:57;100454.53;;;-2.98;100.00
38718;BME280;24468;52.128;9.278;2022-11-20T00:31:23;100449.47;;;-2.74;100.00
38718;BME280;24468;52.128;9.278;2022-11-20T00:33:48;100447.72;;;-2.70;100.00
38718;BME280;24468;52.128;9.278;2022-11-20T00:36:16;100454.84;;;-2.58;100.00
38718;BME280;24468;52.128;9.278;2022-11-20T00:38:42;100449.66;;;-2.48;100.00
38718;BME280;24468;52.128;9.278;2022-11-20T00:41:09;100447.09;;;-2.37;100.00
38718;BME280;24468;52.128;9.278;2022-11-20T00:43:36;100447.97;;;-2.33;100.00
38718;BME280;24468;52.128;9.278;2022-11-20T00:46:04;100450.66;;;-2.30;100.00
38718;BME280;24468;52.128;9.278;2022-11-20T00:48:30;100445.38;;;-2.29;100.00
38718;BME280;24468;52.128;9.278;2022-11-20T00:50:57;100438.38;;;-2.22;100.00
38718;BME280;24468;52.128;9.278;2022-11-20T00:53:22;100441.91;;;-2.20;100.00
38718;BME280;24468;52.128;9.278;2022-11-20T00:55:56;100447.16;;;-2.23;100.00
38718;BME280;24468;52.128;9.278;2022-11-20T00:58:22;100438.41;;;-2.19;100.00
38718;BME280;24468;52.128;9.278;2022-11-20T01:00:48;100448.09;;;-2.18;100.00
38718;BME280;24468;52.128;9.278;2022-11-20T01:03:16;100443.69;;;-2.16;100.00
38718;BME280;24468;52.128;9.278;2022-11-20T01:05:41;100439.19;;;-2.31;100.00
38718;BME280;24468;52.128;9.278;2022-11-20T01:08:07;100437.47;;;-2.22;100.00
38718;BME280;24468;52.128;9.278;2022-11-20T01:10:33;100433.03;;;-2.28;100.00
38718;BME280;24468;52.128;9.278;2022-11-20T01:12:58;100435.66;;;-2.36;100.00
38718;BME280;24468;52.128;9.278;2022-11-20T01:15:42;100429.47;;;-2.38;100.00
38718;BME280;24468;52.128;9.278;2022-11-20T01:18:07;100430.38;;;-2.31;100.00
38718;BME280;24468;52.128;9.278;2022-11-20T01:20:36;100426.88;;;-2.32;100.00
38718;BME280;24468;52.128;9.278;2022-11-20T01:23:03;100431.25;;;-2.34;100.00
38718;BME280;24468;52.128;9.278;2022-11-20T01:25:28;100439.16;;;-2.37;100.00
38718;BME280;24468;52.128;9.278;2022-11-20T01:27:54;100433.88;;;-2.40;100.00
38718;BME280;24468;52.128;9.278;2022-11-20T01:30:19;100429.41;;;-2.49;100.00
38718;BME280;24468;52.128;9.278;2022-11-20T01:32:45;100432.78;;;-2.68;100.00
38718;BME280;24468;52.128;9.278;2022-11-20T01:35:10;100433.69;;;-2.66;100.00
38718;BME280;24468;52.128;9.278;2022-11-20T01:37:36;100421.28;;;-2.75;100.00
38718;BME280;24468;52.128;9.278;2022-11-20T01:40:01;100423.81;;;-2.88;100.00
38718;BME280;24468;52.128;9.278;2022-11-20T01:42:27;100408.84;;;-2.89;100.00
38718;BME280;24468;52.128;9.278;2022-11-20T01:48:14;100416.59;;;-3.13;100.00
38718;BME280;24468;52.128;9.278;2022-11-20T01:50:39;100413.31;;;-2.84;100.00
38718;BME280;24468;52.128;9.278;2022-11-20T01:53:08;100405.38;;;-2.87;100.00
38718;BME280;24468;52.128;9.278;2022-11-20T01:55:36;100408.06;;;-2.78;100.00
38718;BME280;24468;52.128;9.278;2022-11-20T01:58:03;100412.44;;;-2.80;100.00
38718;BME280;24468;52.128;9.278;2022-11-20T02:00:29;100405.47;;;-2.70;100.00
38718;BME280;24468;52.128;9.278;2022-11-20T02:03:01;100406.28;;;-2.82;100.00
38718;BME280;24468;52.128;9.278;2022-11-20T02:07:54;100401.84;;;-2.83;100.00
38718;BME280;24468;52.128;9.278;2022-11-20T02:10:21;100394.84;;;-2.81;100.00
38718;BME280;24468;52.128;9.278;2022-11-20T02:12:47;100391.28;;;-2.83;100.00
38718;BME280;24468;52.128;9.278;2022-11-20T02:15:32;100391.16;;;-3.00;100.00
38718;BME280;24468;52.128;9.278;2022-11-20T02:17:58;100387.75;;;-2.86;100.00
38718;BME280;24468;52.128;9.278;2022-11-20T02:20:24;100387.78;;;-2.80;100.00
38718;BME280;24468;52.128;9.278;2022-11-20T02:25:34;100393.84;;;-2.97;100.00
38718;BME280;24468;52.128;9.278;2022-11-20T02:28:00;100379.81;;;-2.88;100.00
38718;BME280;24468;52.128;9.278;2022-11-20T02:30:26;100381.56;;;-2.92;100.00
38718;BME280;24468;52.128;9.278;2022-11-20T02:32:51;100374.44;;;-3.02;100.00
38718;BME280;24468;52.128;9.278;2022-11-20T02:37:47;100373.72;;;-2.82;100.00
38718;BME280;24468;52.128;9.278;2022-11-20T02:40:14;100379.88;;;-2.82;100.00
38718;BME280;24468;52.128;9.278;2022-11-20T02:42:39;100373.69;;;-2.84;100.00
38718;BME280;24468;52.128;9.278;2022-11-20T02:45:05;100371.97;;;-2.82;100.00
38718;BME280;24468;52.128;9.278;2022-11-20T02:47:31;100365.81;;;-2.82;100.00
38718;BME280;24468;52.128;9.278;2022-11-20T02:49:56;100369.31;;;-2.82;100.00
38718;BME280;24468;52.128;9.278;2022-11-20T02:52:23;100361.28;;;-2.97;100.00
38718;BME280;24468;52.128;9.278;2022-11-20T02:54:48;100369.25;;;-2.93;100.00
38718;BME280;24468;52.128;9.278;2022-11-20T02:57:14;100363.19;;;-2.76;100.00
38718;BME280;24468;52.128;9.278;2022-11-20T02:59:39;100363.22;;;-2.70;100.00
38718;BME280;24468;52.128;9.278;2022-11-20T03:02:04;100360.59;;;-2.70;100.00
38718;BME280;24468;52.128;9.278;2022-11-20T03:04:30;100363.22;;;-2.72;100.00
38718;BME280;24468;52.128;9.278;2022-11-20T03:06:56;100364.06;;;-2.76;100.00
38718;BME280;24468;52.128;9.278;2022-11-20T03:09:21;100350.88;;;-2.76;100.00
38718;BME280;24468;52.128;9.278;2022-11-20T03:11:47;100352.72;;;-2.65;100.00
38718;BME280;24468;52.128;9.278;2022-11-20T03:14:12;100354.47;;;-2.64;100.00
38718;BME280;24468;52.128;9.278;2022-11-20T03:16:38;100352.69;;;-2.67;100.00
38718;BME280;24468;52.128;9.278;2022-11-20T03:19:03;100353.47;;;-2.83;100.00
38718;BME280;24468;52.128;9.278;2022-11-20T03:21:29;100344.69;;;-2.79;100.00
38718;BME280;24468;52.128;9.278;2022-11-20T03:23:54;100345.56;;;-2.77;100.00
38718;BME280;24468;52.128;9.278;2022-11-20T03:26:22;100335.94;;;-2.74;100.00
38718;BME280;24468;52.128;9.278;2022-11-20T03:28:50;100341.13;;;-2.91;100.00
38718;BME280;24468;52.128;9.278;2022-11-20T03:31:16;100344.59;;;-2.96;100.00
38718;BME280;24468;52.128;9.278;2022-11-20T03:33:42;100340.25;;;-2.83;100.00
38718;BME280;24468;52.128;9.278;2022-11-20T03:36:10;100341.06;;;-2.95;100.00
38718;BME280;24468;52.128;9.278;2022-11-20T03:38:36;100339.97;;;-3.22;100.00
38718;BME280;24468;52.128;9.278;2022-11-20T03:41:13;100342.75;;;-3.02;100.00
38718;BME280;24468;52.128;9.278;2022-11-20T03:43:39;100345.44;;;-2.97;100.00
38718;BME280;24468;52.128;9.278;2022-11-20T03:46:05;100341.03;;;-3.01;100.00
38718;BME280;24468;52.128;9.278;2022-11-20T03:48:31;100332.09;;;-3.19;100.00
38718;BME280;24468;52.128;9.278;2022-11-20T03:51:13;100338.38;;;-3.01;100.00
38718;BME280;24468;52.128;9.278;2022-11-20T03:53:43;100334.91;;;-2.99;100.00
38718;BME280;24468;52.128;9.278;2022-11-20T03:56:09;100326.03;;;-3.02;100.00
38718;BME280;24468;52.128;9.278;2022-11-20T03:58:36;100336.63;;;-2.99;100.00
38718;BME280;24468;52.128;9.278;2022-11-20T04:01:06;100334.03;;;-2.92;100.00
38718;BME280;24468;52.128;9.278;2022-11-20T04:03:31;100329.66;;;-2.88;100.00
38718;BME280;24468;52.128;9.278;2022-11-20T04:06:05;100332.34;;;-2.85;100.00
38718;BME280;24468;52.128;9.278;2022-11-20T04:08:31;100342.03;;;-2.84;100.00
38718;BME280;24468;52.128;9.278;2022-11-20T04:10:56;100342.03;;;-2.84;100.00
38718;BME280;24468;52.128;9.278;2022-11-20T04:13:22;100335.75;;;-2.97;100.00
38718;BME280;24468;52.128;9.278;2022-11-20T04:15:47;100327.75;;;-3.12;100.00
38718;BME280;24468;52.128;9.278;2022-11-20T04:18:13;100328.69;;;-2.99;100.00
38718;BME280;24468;52.128;9.278;2022-11-20T04:20:38;100335.72;;;-3.06;100.00
38718;BME280;24468;52.128;9.278;2022-11-20T04:23:03;100335.72;;;-3.06;100.00
38718;BME280;24468;52.128;9.278;2022-11-20T04:25:29;100336.63;;;-3.01;100.00
38718;BME280;24468;52.128;9.278;2022-11-20T04:27:54;100329.59;;;-2.97;100.00
38718;BME280;24468;52.128;9.278;2022-11-20T04:30:20;100327.78;;;-3.09;100.00
38718;BME280;24468;52.128;9.278;2022-11-20T04:32:45;100327.66;;;-3.21;100.00
38718;BME280;24468;52.128;9.278;2022-11-20T04:35:11;100332.16;;;-3.08;100.00
38718;BME280;24468;52.128;9.278;2022-11-20T04:37:36;100328.72;;;-3.01;100.00
38718;BME280;24468;52.128;9.278;2022-11-20T04:40:01;100330.47;;;-3.01;100.00
38718;BME280;24468;52.128;9.278;2022-11-20T04:42:27;100331.34;;;-2.99;100.00
38718;BME280;24468;52.128;9.278;2022-11-20T04:44:55;100333.97;;;-3.02;100.00
38718;BME280;24468;52.128;9.278;2022-11-20T04:47:21;100325.19;;;-3.00;100.00
38718;BME280;24468;52.128;9.278;2022-11-20T04:49:46;100333.13;;;-2.98;100.00
38718;BME280;24468;52.128;9.278;2022-11-20T04:52:12;100333.97;;;-3.04;100.00
38718;BME280;24468;52.128;9.278;2022-11-20T04:54:38;100327.75;;;-3.07;100.00
38718;BME280;24468;52.128;9.278;2022-11-20T04:57:03;100323.09;;;-3.44;100.00
38718;BME280;24468;52.128;9.278;2022-11-20T04:59:29;100326.56;;;-3.49;100.00
38718;BME280;24468;52.128;9.278;2022-11-20T05:01:54;100320.53;;;-3.36;100.00
38718;BME280;24468;52.128;9.278;2022-11-20T05:04:20;100321.47;;;-3.26;100.00
38718;BME280;24468;52.128;9.278;2022-11-20T05:06:45;100315.38;;;-3.19;100.00
38718;BME280;24468;52.128;9.278;2022-11-20T05:09:12;100315.38;;;-3.21;100.00
38718;BME280;24468;52.128;9.278;2022-11-20T05:11:37;100313.59;;;-3.22;100.00
38718;BME280;24468;52.128;9.278;2022-11-20T05:14:03;100319.72;;;-3.24;100.00
38718;BME280;24468;52.128;9.278;2022-11-20T05:16:28;100321.44;;;-3.29;100.00
38718;BME280;24468;52.128;9.278;2022-11-20T05:18:54;100310.88;;;-3.34;100.00
38718;BME280;24468;52.128;9.278;2022-11-20T05:21:20;100311.78;;;-3.29;100.00
38718;BME280;24468;52.128;9.278;2022-11-20T05:23:46;100317.06;;;-3.27;100.00
38718;BME280;24468;52.128;9.278;2022-11-20T05:26:31;100304.78;;;-3.24;100.00
38718;BME280;24468;52.128;9.278;2022-11-20T05:28:56;100301.31;;;-3.17;100.00
38718;BME280;24468;52.128;9.278;2022-11-20T05:31:23;100307.50;;;-3.10;100.00
38718;BME280;24468;52.128;9.278;2022-11-20T05:33:49;100300.53;;;-3.03;100.00
38718;BME280;24468;52.128;9.278;2022-11-20T05:36:14;100306.75;;;-2.98;100.00
38718;BME280;24468;52.128;9.278;2022-11-20T05:38:40;100302.31;;;-3.01;100.00
38718;BME280;24468;52.128;9.278;2022-11-20T05:41:18;100309.28;;;-3.07;100.00
38718;BME280;24468;52.128;9.278;2022-11-20T05:43:45;100309.34;;;-3.04;100.00
38718;BME280;24468;52.128;9.278;2022-11-20T05:46:13;100312.00;;;-3.00;100.00
38718;BME280;24468;52.128;9.278;2022-11-20T05:48:40;100312.91;;;-2.98;100.00
38718;BME280;24468;52.128;9.278;2022-11-20T05:51:07;100306.72;;;-3.01;100.00
38718;BME280;24468;52.128;9.278;2022-11-20T05:53:33;100308.38;;;-3.14;100.00
38718;BME280;24468;52.128;9.278;2022-11-20T05:56:06;100313.50;;;-3.37;100.00
38718;BME280;24468;52.128;9.278;2022-11-20T05:58:32;100316.00;;;-3.51;100.00
38718;BME280;24468;52.128;9.278;2022-11-20T06:01:06;100314.22;;;-3.53;100.00
38718;BME280;24468;52.128;9.278;2022-11-20T06:03:32;100317.75;;;-3.53;100.00
38718;BME280;24468;52.128;9.278;2022-11-20T06:05:59;100311.44;;;-3.69;100.00
38718;BME280;24468;52.128;9.278;2022-11-20T06:08:25;100313.50;;;-3.37;100.00
38718;BME280;24468;52.128;9.278;2022-11-20T06:10:50;100304.69;;;-3.36;100.00
38718;BME280;24468;52.128;9.278;2022-11-20T06:13:16;100306.56;;;-3.23;100.00
38718;BME280;24468;52.128;9.278;2022-11-20T06:15:41;100308.34;;;-3.16;100.00
38718;BME280;24468;52.128;9.278;2022-11-20T06:18:06;100310.44;;;-3.78;100.00
38718;BME280;24468;52.128;9.278;2022-11-20T06:20:32;100314.97;;;-3.67;100.00
38718;BME280;24468;52.128;9.278;2022-11-20T06:22:57;100302.84;;;-3.46;100.00
38718;BME280;24468;52.128;9.278;2022-11-20T06:25:23;100302.78;;;-3.52;100.00
38718;BME280;24468;52.128;9.278;2022-11-20T06:27:48;100299.38;;;-3.42;100.00
38718;BME280;24468;52.128;9.278;2022-11-20T06:30:14;100300.31;;;-3.34;100.00
38718;BME280;24468;52.128;9.278;2022-11-20T06:32:39;100302.03;;;-3.39;100.00
38718;BME280;24468;52.128;9.278;2022-11-20T06:35:05;100302.22;;;-3.18;100.00
38718;BME280;24468;52.128;9.278;2022-11-20T06:37:31;100312.50;;;-3.50;100.00
38718;BME280;24468;52.128;9.278;2022-11-20T06:39:56;100305.34;;;-3.63;100.00
38718;BME280;24468;52.128;9.278;2022-11-20T06:42:21;100293.22;;;-3.41;100.00
38718;BME280;24468;52.128;9.278;2022-11-20T06:44:47;100299.53;;;-3.22;100.00
38718;BME280;24468;52.128;9.278;2022-11-20T06:47:12;100290.78;;;-3.14;100.00
38718;BME280;24468;52.128;9.278;2022-11-20T06:49:38;100292.44;;;-3.28;100.00
38718;BME280;24468;52.128;9.278;2022-11-20T06:52:04;100307.28;;;-3.41;100.00
38718;BME280;24468;52.128;9.278;2022-11-20T06:54:29;100300.47;;;-3.14;100.00
38718;BME280;24468;52.128;9.278;2022-11-20T06:56:55;100298.75;;;-3.06;100.00
38718;BME280;24468;52.128;9.278;2022-11-20T06:59:20;100303.22;;;-2.99;100.00
38718;BME280;24468;52.128;9.278;2022-11-20T07:01:46;100298.75;;;-3.07;100.00
38718;BME280;24468;52.128;9.278;2022-11-20T07:04:12;100303.19;;;-3.03;100.00
38718;BME280;24468;52.128;9.278;2022-11-20T07:06:37;100306.75;;;-2.98;100.00
38718;BME280;24468;52.128;9.278;2022-11-20T07:09:02;100289.22;;;-2.87;100.00
38718;BME280;24468;52.128;9.278;2022-11-20T07:11:28;100307.31;;;-3.36;100.00
38718;BME280;24468;52.128;9.278;2022-11-20T07:13:53;100302.19;;;-3.19;100.00
38718;BME280;24468;52.128;9.278;2022-11-20T07:16:19;100307.63;;;-2.98;100.00
38718;BME280;24468;52.128;9.278;2022-11-20T07:18:44;100303.31;;;-2.82;100.00
38718;BME280;24468;52.128;9.278;2022-11-20T07:21:10;100305.16;;;-2.67;100.00
38718;BME280;24468;52.128;9.278;2022-11-20T07:23:36;100302.63;;;-2.42;100.00
38718;BME280;24468;52.128;9.278;2022-11-20T07:26:06;100291.97;;;-2.65;100.00
38718;BME280;24468;52.128;9.278;2022-11-20T07:28:32;100292.94;;;-2.47;100.00
38718;BME280;24468;52.128;9.278;2022-11-20T07:30:57;100287.75;;;-2.20;100.00
38718;BME280;24468;52.128;9.278;2022-11-20T07:33:23;100300.00;;;-2.44;100.00
38718;BME280;24468;52.128;9.278;2022-11-20T07:35:48;100302.28;;;-3.07;100.00
38718;BME280;24468;52.128;9.278;2022-11-20T07:38:14;100296.41;;;-2.55;100.00
38718;BME280;24468;52.128;9.278;2022-11-20T07:40:39;100291.28;;;-2.21;100.00
38718;BME280;24468;52.128;9.278;2022-11-20T07:43:05;100301.63;;;-2.74;100.00
38718;BME280;24468;52.128;9.278;2022-11-20T07:45:30;100312.19;;;-2.71;100.00
38718;BME280;24468;52.128;9.278;2022-11-20T07:47:55;100306.22;;;-2.27;100.00
38718;BME280;24468;52.128;9.278;2022-11-20T07:50:21;100303.66;;;-2.02;100.00
38718;BME280;24468;52.128;9.278;2022-11-20T07:52:46;100311.56;;;-2.07;100.00
38718;BME280;24468;52.128;9.278;2022-11-20T07:55:12;100301.97;;;-1.74;100.00
38718;BME280;24468;52.128;9.278;2022-11-20T07:57:37;100296.69;;;-1.57;100.00
38718;BME280;24468;52.128;9.278;2022-11-20T08:00:04;100308.16;;;-1.57;100.00
38718;BME280;24468;52.128;9.278;2022-11-20T08:02:30;100293.19;;;-1.47;100.00
38718;BME280;24468;52.128;9.278;2022-11-20T08:04:56;100282.56;;;-1.35;100.00
38718;BME280;24468;52.128;9.278;2022-11-20T08:07:21;100279.97;;;-1.31;100.00
38718;BME280;24468;52.128;9.278;2022-11-20T08:09:47;100280.81;;;-1.36;100.00
38718;BME280;24468;52.128;9.278;2022-11-20T08:12:18;100288.75;;;-1.54;100.00
38718;BME280;24468;52.128;9.278;2022-11-20T08:15:04;100294.94;;;-1.38;100.00
38718;BME280;24468;52.128;9.278;2022-11-20T08:17:29;100307.28;;;-1.69;100.00
38718;BME280;24468;52.128;9.278;2022-11-20T08:19:55;100299.34;;;-1.45;100.00
38718;BME280;24468;52.128;9.278;2022-11-20T08:22:20;100301.13;;;-1.30;100.00
38718;BME280;24468;52.128;9.278;2022-11-20T08:24:46;100303.75;;;-1.21;100.00
38718;BME280;24468;52.128;9.278;2022-11-20T08:27:11;100307.28;;;-1.25;100.00
38718;BME280;24468;52.128;9.278;2022-11-20T08:29:37;100309.03;;;-1.59;100.00
38718;BME280;24468;52.128;9.278;2022-11-20T08:32:02;100299.34;;;-1.28;100.00
38718;BME280;24468;52.128;9.278;2022-11-20T08:34:28;100307.28;;;-1.40;100.00
38718;BME280;24468;52.128;9.278;2022-11-20T08:36:53;100303.78;;;-1.45;100.00
38718;BME280;24468;52.128;9.278;2022-11-20T08:39:19;100306.41;;;-1.33;100.00
38718;BME280;24468;52.128;9.278;2022-11-20T08:41:44;100292.31;;;-1.15;100.00
38718;BME280;24468;52.128;9.278;2022-11-20T08:44:10;100294.06;;;-1.25;100.00
38718;BME280;24468;52.128;9.278;2022-11-20T08:46:37;100295.78;;;-1.02;100.00
38718;BME280;24468;52.128;9.278;2022-11-20T08:49:04;100294.94;;;-1.09;100.00
38718;BME280;24468;52.128;9.278;2022-11-20T08:51:30;100291.41;;;-1.14;100.00
38718;BME280;24468;52.128;9.278;2022-11-20T08:53:55;100293.16;;;-1.08;100.00
38718;BME280;24468;52.128;9.278;2022-11-20T08:56:21;100297.56;;;-0.87;100.00
38718;BME280;24468;52.128;9.278;2022-11-20T08:58:46;100293.13;;;-0.92;100.00
38718;BME280;24468;52.128;9.278;2022-11-20T09:01:12;100294.88;;;-0.78;100.00
38718;BME280;24468;52.128;9.278;2022-11-20T09:03:37;100284.28;;;-0.80;100.00
38718;BME280;24468;52.128;9.278;2022-11-20T09:06:05;100285.22;;;-1.24;100.00
38718;BME280;24468;52.128;9.278;2022-11-20T09:08:31;100285.13;;;-0.72;100.00
38718;BME280;24468;52.128;9.278;2022-11-20T09:10:57;100281.63;;;-0.80;100.00
38718;BME280;24468;52.128;9.278;2022-11-20T09:13:24;100282.44;;;-0.52;100.00
38718;BME280;24468;52.128;9.278;2022-11-20T09:15:54;100270.09;;;-0.59;100.00
38718;BME280;24468;52.128;9.278;2022-11-20T09:18:20;100273.66;;;-0.63;100.00
38718;BME280;24468;52.128;9.278;2022-11-20T09:20:45;100278.97;;;-0.75;100.00
38718;BME280;24468;52.128;9.278;2022-11-20T09:23:11;100286.94;;;-0.81;100.00
38718;BME280;24468;52.128;9.278;2022-11-20T09:25:36;100277.16;;;-0.64;100.00
38718;BME280;24468;52.128;9.278;2022-11-20T09:28:02;100275.34;;;-0.50;100.00
38718;BME280;24468;52.128;9.278;2022-11-20T09:30:27;100266.56;;;-0.58;100.00
38718;BME280;24468;52.128;9.278;2022-11-20T09:32:52;100257.66;;;-0.35;100.00
38718;BME280;24468;52.128;9.278;2022-11-20T09:35:18;100265.56;;;-0.34;100.00
38718;BME280;24468;52.128;9.278;2022-11-20T09:37:44;100256.69;;;-0.20;100.00
38718;BME280;24468;52.128;9.278;2022-11-20T09:40:25;100259.34;;;-0.25;100.00
38718;BME280;24468;52.128;9.278;2022-11-20T09:48:23;100262.22;;;-0.88;100.00
38718;BME280;24468;52.128;9.278;2022-11-20T09:53:50;100273.75;;;-1.12;100.00
38718;BME280;24468;52.128;9.278;2022-11-20T09:56:19;100271.88;;;-0.72;100.00
38718;BME280;24468;52.128;9.278;2022-11-20T09:58:46;100248.72;;;-0.22;100.00
38718;BME280;24468;52.128;9.278;2022-11-20T10:01:17;100244.25;;;-0.08;100.00
38718;BME280;24468;52.128;9.278;2022-11-20T10:04:19;100242.44;;;-0.06;100.00
38718;BME280;24468;52.128;9.278;2022-11-20T10:07:08;100245.78;;;0.26;100.00
38718;BME280;24468;52.128;9.278;2022-11-20T10:09:38;100247.56;;;0.24;100.00
38718;BME280;24468;52.128;9.278;2022-11-20T10:20:49;100248.53;;;0.12;100.00
38718;BME280;24468;52.128;9.278;2022-11-20T10:26:16;100244.72;;;0.47;100.00
38718;BME280;24468;52.128;9.278;2022-11-20T10:31:42;100251.44;;;0.91;100.00
38718;BME280;24468;52.128;9.278;2022-11-20T10:37:00;100249.31;;;0.26;100.00
38718;BME280;24468;52.128;9.278;2022-11-20T10:39:48;100249.25;;;0.35;100.00
38718;BME280;24468;52.128;9.278;2022-11-20T10:42:20;100242.94;;;0.53;100.00
38718;BME280;24468;52.128;9.278;2022-11-20T10:44:52;100233.91;;;0.71;100.00
38718;BME280;24468;52.128;9.278;2022-11-20T10:47:30;100223.97;;;0.90;100.00
38718;BME280;24468;52.128;9.278;2022-11-20T10:49:58;100234.69;;;0.84;100.00
38718;BME280;24468;52.128;9.278;2022-11-20T11:01:06;100220.91;;;1.28;100.00
38718;BME280;24468;52.128;9.278;2022-11-20T11:03:38;100210.41;;;1.18;100.00
38718;BME280;24468;52.128;9.278;2022-11-20T11:06:08;100211.31;;;1.15;100.00
38718;BME280;24468;52.128;9.278;2022-11-20T11:08:38;100206.94;;;1.13;100.00
38718;BME280;24468;52.128;9.278;2022-11-20T11:11:23;100209.50;;;1.20;100.00
38718;BME280;24468;52.128;9.278;2022-11-20T11:13:50;100208.84;;;1.00;100.00
38718;BME280;24468;52.128;9.278;2022-11-20T11:16:24;100212.66;;;0.74;100.00
38718;BME280;24468;52.128;9.278;2022-11-20T11:18:50;100202.22;;;1.38;100.00
38718;BME280;24468;52.128;9.278;2022-11-20T11:21:25;100201.81;;;0.93;100.00
38718;BME280;24468;52.128;9.278;2022-11-20T11:24:00;100192.31;;;1.49;100.00
38718;BME280;24468;52.128;9.278;2022-11-20T11:26:26;100190.00;;;1.89;100.00
38718;BME280;24468;52.128;9.278;2022-11-20T11:28:53;100183.06;;;2.36;100.00
38718;BME280;24468;52.128;9.278;2022-11-20T11:31:37;100179.03;;;2.09;100.00
38718;BME280;24468;52.128;9.278;2022-11-20T11:34:12;100182.13;;;2.39;100.00
38718;BME280;24468;52.128;9.278;2022-11-20T11:36:38;100172.59;;;2.24;100.00
38718;BME280;24468;52.128;9.278;2022-11-20T11:39:05;100164.19;;;2.50;100.00
38718;BME280;24468;52.128;9.278;2022-11-20T11:41:32;100158.47;;;2.72;100.00
38718;BME280;24468;52.128;9.278;2022-11-20T11:44:26;100161.75;;;2.86;100.00
38718;BME280;24468;52.128;9.278;2022-11-20T11:47:32;100151.84;;;2.93;100.00
38718;BME280;24468;52.128;9.278;2022-11-20T11:50:08;100137.56;;;2.97;100.00
38718;BME280;24468;52.128;9.278;2022-11-20T11:58:16;100162.22;;;1.47;100.00
38718;BME280;24468;52.128;9.278;2022-11-20T12:03:35;100158.41;;;2.22;100.00
38718;BME280;24468;52.128;9.278;2022-11-20T12:06:05;100151.03;;;1.84;100.00
38718;BME280;24468;52.128;9.278;2022-11-20T12:09:05;100149.06;;;1.38;100.00
38718;BME280;24468;52.128;9.278;2022-11-20T12:11:43;100151.75;;;1.35;100.00
38718;BME280;24468;52.128;9.278;2022-11-20T12:14:34;100145.63;;;1.29;100.00
38718;BME280;24468;52.128;9.278;2022-11-20T12:17:00;100138.56;;;1.25;100.00
38718;BME280;24468;52.128;9.278;2022-11-20T12:19:30;100134.03;;;1.33;100.00
38718;BME280;24468;52.128;9.278;2022-11-20T12:30:17;100133.44;;;1.11;100.00
38718;BME280;24468;52.128;9.278;2022-11-20T12:35:56;100126.47;;;2.23;100.00
38718;BME280;24468;52.128;9.278;2022-11-20T12:52:45;100099.69;;;2.81;100.00
38718;BME280;24468;52.128;9.278;2022-11-20T12:58:01;100096.19;;;2.29;100.00
38718;BME280;24468;52.128;9.278;2022-11-20T13:00:30;100113.38;;;2.11;100.00
38718;BME280;24468;52.128;9.278;2022-11-20T13:05:46;100107.09;;;1.58;100.00
38718;BME280;24468;52.128;9.278;2022-11-20T13:08:25;100097.41;;;2.11;100.00
38718;BME280;24468;52.128;9.278;2022-11-20T13:10:58;100103.97;;;1.89;100.00
38718;BME280;24468;52.128;9.278;2022-11-20T13:13:32;100094.75;;;2.11;100.00
38718;BME280;24468;52.128;9.278;2022-11-20T13:16:02;100099.91;;;2.19;100.00
38718;BME280;24468;52.128;9.278;2022-11-20T13:18:33;100090.81;;;2.34;100.00
38718;BME280;24468;52.128;9.278;2022-11-20T13:21:01;100086.78;;;2.08;100.00
38718;BME280;24468;52.128;9.278;2022-11-20T13:23:27;100091.69;;;2.34;100.00
38718;BME280;24468;52.128;9.278;2022-11-20T13:28:40;100093.56;;;2.76;100.00
38718;BME280;24468;52.128;9.278;2022-11-20T13:31:10;100084.81;;;2.69;100.00
38718;BME280;24468;52.128;9.278;2022-11-20T13:33:49;100089.25;;;2.68;100.00
38718;BME280;24468;52.128;9.278;2022-11-20T13:36:25;100079.81;;;2.97;100.00
38718;BME280;24468;52.128;9.278;2022-11-20T13:38:53;100072.63;;;3.01;100.00
38718;BME280;24468;52.128;9.278;2022-11-20T13:41:30;100082.44;;;2.54;100.00
38718;BME280;24468;52.128;9.278;2022-11-20T13:44:23;100076.53;;;2.38;100.00
38718;BME280;24468;52.128;9.278;2022-11-20T13:46:48;100078.31;;;2.37;100.00
38718;BME280;24468;52.128;9.278;2022-11-20T13:49:30;100069.25;;;2.46;100.00
38718;BME280;24468;52.128;9.278;2022-11-20T13:58:04;100055.34;;;2.77;100.00
38718;BME280;24468;52.128;9.278;2022-11-20T14:00:32;100054.31;;;2.85;100.00
38718;BME280;24468;52.128;9.278;2022-11-20T14:03:18;100059.13;;;2.66;100.00
38718;BME280;24468;52.128;9.278;2022-11-20T14:05:59;100035.16;;;2.65;100.00
38718;BME280;24468;52.128;9.278;2022-11-20T14:08:40;100043.31;;;2.57;100.00
38718;BME280;24468;52.128;9.278;2022-11-20T14:11:18;100042.28;;;3.08;100.00
38718;BME280;24468;52.128;9.278;2022-11-20T14:14:14;100034.69;;;3.28;100.00
38718;BME280;24468;52.128;9.278;2022-11-20T14:16:40;100047.84;;;3.36;100.00
38718;BME280;24468;52.128;9.278;2022-11-20T14:24:12;100034.75;;;2.85;100.00
38718;BME280;24468;52.128;9.278;2022-11-20T14:26:42;100024.88;;;2.90;100.00
38718;BME280;24468;52.128;9.278;2022-11-20T14:29:29;100030.41;;;2.81;100.00